Tiempo atmosférico en la estación meteorológica de Garrucha, Puerto, Almería (12 m.)

Fecha
DESCASC
Temp. máxima en grados centígrados (hora)
DESCASC
Temp. mínima en grados centígrados (hora)
DESCASC
Temp. media en grados centígrados
DESCASC
Racha de viento máxima en m/sg (hora)
DESCASC
Velocidad máxima media en intervalos de 10 minutos(hora)
DESCASC
Precipitaciones diarias en mm
DESCASC
Precipitaciones de 00:00 a 06:00 en mm
DESCASC
Precipitaciones de 06:00 a 12:00 en mm
DESCASC
Precipitaciones de 12:00 a 18:00 en mm
DESCASC
Precipitaciones de 18:00 a 24:00 en mm
DESCASC
24-09-2017 26.5 (11:50) 18.4 (08:00) 22.4 10 (18:20) 8.89 (18:20) 0 0 0 0 0
23-09-2017 26 (15:10) 20 (08:10) 23 8.06 (18:20) 6.67 (18:10) 0 0 0 0 0
22-09-2017 25.5 (13:30) 18.9 (07:50) 22.2 12.22 (19:20) 10 (19:30) 0 0 0 0 0
21-09-2017 26 (13:40) 17.4 (00:00) 21.7 6.11 (07:50) 5 (07:50) 0 0 0 0 0
20-09-2017 26 (11:40) 18.3 (00:00) 22.1 6.39 (18:30) 5.28 (18:20) 0 0 0 0 0
19-09-2017 25.9 (11:20) 20 (00:00) 22.9 9.17 (20:00) 8.06 (18:20) 0 0 0 0 0
18-09-2017 29.1 (19:40) 18.4 (00:00) 23.8 12.22 (15:10) 10.56 (15:10) 0 0 0 0 0
17-09-2017 25.2 (12:20) 19 (00:00) 22.1 11.11 (19:40) 9.72 (19:30) 0 0 0 0 0
16-09-2017 23.8 (00:00) 20.5 (00:00) 22.1 14.44 (02:20) 11.39 (02:10) 1.8 0 1.8 0 0
15-09-2017 26.6 (10:40) 23.1 (00:00) 24.9 12.78 (22:40) 9.72 (23:10) 0 0 0 0 0
14-09-2017 30.5 (19:20) 19.8 (00:00) 25.1 12.5 (15:30) 11.11 (15:30) 0 0 0 0 0
13-09-2017 27.8 (12:20) 20.1 (00:00) 23.9 6.11 (07:10) 5.28 (15:00) 0 0 0 0 0
12-09-2017 29.9 (11:10) 20.8 (00:00) 25.3 8.89 (15:30) 7.78 (15:30) 0 0 0 0 0
11-09-2017 28.7 (19:10) 19.2 (00:00) 24 13.06 (18:00) 10.56 (16:30) 0 0 0 0 0
10-09-2017 27.8 (00:00) 21.4 (00:00) 24.6 15.83 (18:00) 13.61 (18:00) 0 0 0 0 0
09-09-2017 30.1 (21:10) 21.1 (00:00) 25.6 16.39 (21:50) 11.67 (21:50) 0 0 0 0 0
08-09-2017 26.4 (11:00) 22.2 (00:00) 24.3 9.17 (16:50) 8.33 (18:00) 0 0 0 0 0
07-09-2017 28.6 (13:20) 21.3 (00:00) 24.9 6.94 (17:10) 5.83 (17:20) 0 0 0 0 0
06-09-2017 27.3 (11:20) 21.4 (00:00) 24.3 6.67 (14:20) 5.83 (14:40) 0 0 0 0 0
05-09-2017 28.9 (13:40) 22.7 (00:00) 25.8 8.06 (00:50) 6.67 (00:50) 0 0 0 0 0
04-09-2017 27.5 (11:00) 21.6 (00:00) 24.6 13.06 (15:40) 11.11 (15:40) 0 0 0 0 0
03-09-2017 26.8 (11:50) 21.6 (00:00) 24.2 10.28 (17:30) 8.89 (17:30) 0 0 0 0 0
02-09-2017 26.3 (14:10) 23.9 (00:00) 25.1 10.83 (12:20) 8.06 (12:00) 0 0 0 0 0
01-09-2017 28 (11:40) 21.8 (00:00) 24.9 11.39 (17:40) 9.44 (17:20) 0 0 0 0 0
31-08-2017 28.3 (18:40) 20.7 (00:00) 24.5 7.22 (22:00) 5.28 (21:50) 0 0 0 0 0
30-08-2017 24.6 (19:40) 19.2 (00:00) 21.9 7.5 (18:20) 6.11 (18:10) 30.4 6.4 11.6 12.4 0
29-08-2017 25.9 (16:30) 20.3 (00:00) 23.1 7.5 (22:50) 6.11 (22:50) 22.4 0 2.8 0.8 18.8
28-08-2017 29.2 (14:20) 24.6 (00:00) 26.9 14.17 (17:10) 11.67 (17:10) 0 0 0 0 0
27-08-2017 29.8 (13:30) 24.7 (00:00) 27.3 7.22 (08:00) 5 (00:20) 0 0 0 0 0
26-08-2017 28.9 (18:20) 23.7 (00:00) 26.3 6.94 (12:10) 6.11 (12:10) 0 0 0 0 0

Gráficas

Temp. máximas Temp. mínimas Temp. medias Precipitaciones Rachas de viento máximas Velocidades máximas media en intervalos de 10 minutos

Datos horarios

Fecha y hora oficial Temperatura (ºC) Velocidad del viento (km/h) Dirección del viento Racha (km/h) Dirección de racha Precipitación (mm) Presión (hPa) Tendencia (hPa) Humedad (%)
2017-09-24 23:00:00 21.6 12 Oeste 15 Oeste 0 -- -- 88
2017-09-24 22:00:00 22.2 4 Oeste 13 Sur 0 -- -- 88
2017-09-24 21:00:00 23.3 13 Sur 25 Sudeste 0 -- -- 87
2017-09-24 20:00:00 23.4 24 Sudeste 30 Sudeste 0 -- -- 85
2017-09-24 19:00:00 23.6 30 Sudeste 36 Sudeste 0 -- -- 83
2017-09-24 18:00:00 23.7 30 Sudeste 33 Sudeste 0 -- -- 85
2017-09-24 17:00:00 23.9 28 Sudeste 31 Sudeste 0 -- -- 84
2017-09-24 16:00:00 23.8 27 Sudeste 29 Sudeste 0 -- -- 83
2017-09-24 15:00:00 24 24 Sudeste 27 Sudeste 0 -- -- 82
2017-09-24 14:00:00 24.3 20 Sudeste 23 Sudeste 0 -- -- 77
2017-09-24 13:00:00 24.4 17 Este 19 Este 0 -- -- 73
2017-09-24 12:00:00 26.5 8 Nordeste 11 Nordeste 0 -- -- 60
2017-09-24 11:00:00 23.8 6 Noroeste 12 Oeste 0 -- -- 63
2017-09-24 10:00:00 21.2 8 Oeste 14 Noroeste 0 -- -- 72
2017-09-24 09:00:00 18.9 9 Noroeste 17 Oeste 0 -- -- 81
2017-09-24 08:00:00 18.4 11 Oeste 18 Oeste 0 -- -- 84
2017-09-24 07:00:00 18.9 14 Oeste 18 Oeste 0 -- -- 85
2017-09-24 06:00:00 19.2 12 Oeste 17 Oeste 0 -- -- 85
2017-09-24 05:00:00 20.2 12 Oeste 20 Oeste 0 -- -- 83
2017-09-24 04:00:00 20.2 10 Oeste 13 Noroeste 0 -- -- 84
2017-09-24 03:00:00 20.7 7 Noroeste 13 Noroeste 0 -- -- 85
2017-09-24 02:00:00 21 11 Noroeste 14 Oeste 0 -- -- 83
2017-09-24 01:00:00 21.6 7 Noroeste 14 Oeste 0 -- -- 82
2017-09-24 00:00:00 21.9 11 Oeste 15 Oeste 0 -- -- 82
2017-09-23 23:00:00 22.3 10 Noroeste 12 Oeste 0 -- -- 81
2017-09-23 22:00:00 23.6 5 Nordeste 15 Este 0 -- -- 80
2017-09-23 21:00:00 23.7 12 Nordeste 17 Nordeste 0 -- -- 79
2017-09-23 20:00:00 24 13 Este 22 Este 0 -- -- 79
2017-09-23 19:00:00 24.3 20 Este 29 Este 0 -- -- 76
2017-09-23 18:00:00 24.4 22 Este 26 Este 0 -- -- 76
2017-09-23 17:00:00 24.6 18 Este 22 Este 0 -- -- 74
2017-09-23 16:00:00 25.8 16 Este 19 Nordeste 0 -- -- 69
2017-09-23 15:00:00 25.7 16 Nordeste 22 Nordeste 0 -- -- 68
2017-09-23 14:00:00 25.4 15 Nordeste 26 Nordeste 0 -- -- 70
2017-09-23 13:00:00 24.9 16 Nordeste 26 Nordeste 0 -- -- 71
2017-09-23 12:00:00 24.7 12 Norte 19 Nordeste 0 -- -- 68
2017-09-23 11:00:00 22.7 12 Noroeste 21 Noroeste 0 -- -- 70
2017-09-23 10:00:00 21.5 11 Noroeste 16 Noroeste 0 -- -- 73
2017-09-23 09:00:00 20.3 12 Noroeste 16 Oeste 0 -- -- 77
2017-09-23 08:00:00 20.1 11 Noroeste 17 Noroeste 0 -- -- 78
2017-09-23 07:00:00 20.7 12 Noroeste 17 Noroeste 0 -- -- 76
2017-09-23 06:00:00 20.9 13 Noroeste 17 Noroeste 0 -- -- 79
2017-09-23 05:00:00 21.7 13 Noroeste 23 Noroeste 0 -- -- 79
2017-09-23 04:00:00 21.5 16 Noroeste 22 Noroeste 0 -- -- 82
2017-09-23 03:00:00 21.8 15 Noroeste 20 Noroeste 0 -- -- 80
2017-09-23 02:00:00 21.9 12 Noroeste 18 Norte 0 -- -- 77
2017-09-23 01:00:00 22.3 11 Norte 19 Noroeste 0 -- -- 74
2017-09-23 00:00:00 22.9 10 Norte 28 Nordeste 0 -- -- 73
2017-09-22 23:00:00 23.9 20 Nordeste 34 Nordeste 0 -- -- 76
2017-09-22 22:00:00 23.9 26 Nordeste 37 Nordeste 0 -- -- 77
2017-09-22 21:00:00 23.9 28 Nordeste 42 Nordeste 0 -- -- 79
2017-09-22 20:00:00 24.1 36 Nordeste 44 Nordeste 0 -- -- 79
2017-09-22 19:00:00 24.7 33 Nordeste 40 Nordeste 0 -- -- 76
2017-09-22 18:00:00 25.1 29 Nordeste 36 Nordeste 0 -- -- 75
2017-09-22 17:00:00 25.3 26 Nordeste 32 Nordeste 0 -- -- 74
2017-09-22 16:00:00 25.2 24 Nordeste 33 Este 0 -- -- 73
2017-09-22 15:00:00 25.2 28 Este 34 Nordeste 0 -- -- 74
2017-09-22 14:00:00 25.3 27 Este 32 Este 0 -- -- 75
2017-09-22 13:00:00 25.4 19 Nordeste 27 Nordeste 0 -- -- 73
2017-09-22 12:00:00 25.4 12 Nordeste 18 Nordeste 0 -- -- 72
2017-09-22 11:00:00 23.7 10 Norte 21 Noroeste 0 -- -- 68
2017-09-22 10:00:00 21.7 12 Noroeste 17 Noroeste 0 -- -- 75
2017-09-22 09:00:00 19.2 12 Noroeste 21 Noroeste 0 -- -- 73
2017-09-22 08:00:00 19.1 14 Noroeste 20 Noroeste 0 -- -- 76
2017-09-22 07:00:00 19.3 13 Noroeste 18 Noroeste 0 -- -- 84
2017-09-22 06:00:00 20.5 13 Noroeste 20 Noroeste 0 -- -- 81
2017-09-22 05:00:00 20.5 12 Noroeste 18 Noroeste 0 -- -- 79
2017-09-22 04:00:00 20.7 11 Noroeste 15 Oeste 0 -- -- 79
2017-09-22 03:00:00 21.3 12 Noroeste 15 Noroeste 0 -- -- 79
2017-09-22 02:00:00 21.3 8 Noroeste 13 Noroeste 0 -- -- 81
2017-09-22 01:00:00 21.6 9 Oeste 11 Oeste 0 -- -- 81
2017-09-22 00:00:00 22.4 4 Noroeste 14 Oeste 0 -- -- 80
2017-09-21 23:00:00 22.6 6 Noroeste 14 Nordeste 0 -- -- 81
2017-09-21 22:00:00 23.9 10 Nordeste 16 Nordeste 0 -- -- 81
2017-09-21 21:00:00 24.1 12 Nordeste 16 Nordeste 0 -- -- 81
2017-09-21 20:00:00 24.5 10 Este 14 Este 0 -- -- 78
2017-09-21 19:00:00 25.5 11 Este 14 Este 0 -- -- 72
2017-09-21 18:00:00 25.8 9 Este 17 Este 0 -- -- 63
2017-09-21 17:00:00 25 12 Este 13 Este 0 -- -- 73
2017-09-21 16:00:00 25.3 11 Sudeste 15 Este 0 -- -- 74
2017-09-21 15:00:00 25.1 10 Este 21 Este 0 -- -- 71
2017-09-21 14:00:00 25.8 16 Este 18 Nordeste 0 -- -- 67
2017-09-21 13:00:00 25.2 10 Este 13 Este 0 -- -- 65
2017-09-21 12:00:00 25.5 4 Nordeste 14 Noroeste 0 -- -- 56
2017-09-21 11:00:00 23.6 7 Noroeste 15 Noroeste 0 -- -- 57
2017-09-21 10:00:00 20.2 14 Noroeste 20 Noroeste 0 -- -- 73
2017-09-21 09:00:00 17.9 16 Noroeste 21 Noroeste 0 -- -- 81
2017-09-21 08:00:00 17.6 17 Noroeste 22 Oeste 0 -- -- 82
2017-09-21 07:00:00 18.1 14 Noroeste 18 Noroeste 0 -- -- 84
2017-09-21 06:00:00 18.3 15 Oeste 20 Noroeste 0 -- -- 84
2017-09-21 05:00:00 18.9 15 Oeste 19 Oeste 0 -- -- 84
2017-09-21 04:00:00 19.3 14 Oeste 18 Oeste 0 -- -- 86
2017-09-21 03:00:00 20 15 Noroeste 17 Oeste 0 -- -- 85
2017-09-21 02:00:00 20.4 10 Noroeste 17 Oeste 0 -- -- 85
2017-09-21 01:00:00 20.6 14 Oeste 18 Oeste 0 -- -- 84
2017-09-21 00:00:00 21.2 13 Oeste 15 Oeste 0 -- -- 83
2017-09-20 23:00:00 22 10 Noroeste 12 Oeste 0 -- -- 81
2017-09-20 22:00:00 23.4 5 Nordeste 11 Nordeste 0 -- -- 79
2017-09-20 21:00:00 23.6 10 Este 16 Este 0 -- -- 79
2017-09-20 20:00:00 23.9 13 Este 19 Este 0 -- -- 77
2017-09-20 19:00:00 24.5 17 Este 23 Este 0 -- -- 75
2017-09-20 18:00:00 24.6 18 Este 22 Este 0 -- -- 76
2017-09-20 17:00:00 24.2 15 Sudeste 21 Sudeste 0 -- -- 81
2017-09-20 16:00:00 24.1 17 Sudeste 20 Sudeste 0 -- -- 79
2017-09-20 15:00:00 23.7 15 Sudeste 18 Sudeste 0 -- -- 80
2017-09-20 14:00:00 24.1 14 Sudeste 18 Sudeste 0 -- -- 78
2017-09-20 13:00:00 24.5 12 Sudeste 14 Sudeste 0 -- -- 75
2017-09-20 12:00:00 24.9 6 Este 8 Este 0 -- -- 71
2017-09-20 11:00:00 24.9 2 Norte 13 Oeste 0 -- -- 68
2017-09-20 10:00:00 21.4 12 Oeste 17 Oeste 0 -- -- 65
2017-09-20 09:00:00 19.5 9 Oeste 17 Oeste 0 -- -- 74
2017-09-20 08:00:00 18.3 13 Noroeste 17 Oeste 0 -- -- 76
2017-09-20 07:00:00 19 11 Oeste 15 Oeste 0 -- -- 73
2017-09-20 06:00:00 19.6 12 Oeste 15 Oeste 0 -- -- 76
2017-09-20 05:00:00 20.2 9 Oeste 15 Oeste 0 -- -- 72
2017-09-20 04:00:00 20 10 Oeste 19 Oeste 0 -- -- 71
2017-09-20 03:00:00 21.1 10 Oeste 13 Oeste 0 -- -- 73
2017-09-20 02:00:00 20.3 5 Noroeste 10 Oeste 0 -- -- 70
2017-09-20 01:00:00 21.7 9 Oeste 17 Oeste 0 -- -- 86
2017-09-20 00:00:00 22.2 10 Oeste 15 Oeste 0 -- -- 87
2017-09-19 23:00:00 23 5 Oeste 19 Sur 0 -- -- 82
2017-09-19 22:00:00 23.6 18 Sur 24 Sur 0 -- -- 79
2017-09-19 21:00:00 23.6 21 Sur 31 Sur 0 -- -- 87
2017-09-19 20:00:00 23.7 28 Sur 33 Sur 0 -- -- 86
2017-09-19 19:00:00 23.8 28 Sudeste 32 Sudeste 0 -- -- 81
2017-09-19 18:00:00 24.1 27 Sudeste 31 Sudeste 0 -- -- 83
2017-09-19 17:00:00 24.2 25 Sudeste 28 Sudeste 0 -- -- 81
2017-09-19 16:00:00 24.4 21 Sudeste 24 Sudeste 0 -- -- 77
2017-09-19 15:00:00 25 18 Sudeste 21 Sudeste 0 -- -- 73
2017-09-19 14:00:00 25.1 16 Este 21 Este 0 -- -- 67
2017-09-19 13:00:00 25.2 17 Este 21 Nordeste 0 -- -- 65
2017-09-19 12:00:00 25.4 15 Nordeste 19 Nordeste 0 -- -- 66
2017-09-19 11:00:00 25.1 4 Nordeste 14 Norte 0 -- -- 57
2017-09-19 10:00:00 22.6 10 Noroeste 19 Oeste 0 -- -- 64
2017-09-19 09:00:00 20.2 12 Noroeste 21 Noroeste 0 -- -- 69
2017-09-19 08:00:00 20.2 12 Noroeste 19 Noroeste 0 -- -- 62
2017-09-19 07:00:00 20.9 12 Noroeste 15 Noroeste 0 -- -- 52
2017-09-19 06:00:00 22 6 Norte 18 Noroeste 0 -- -- 46
2017-09-19 05:00:00 21.9 14 Noroeste 20 Noroeste 0 -- -- 48
2017-09-19 04:00:00 23.1 9 Norte 22 Norte 0 -- -- 45
2017-09-19 03:00:00 24.5 19 Noroeste 26 Norte 0 -- -- 43
2017-09-19 02:00:00 23.7 10 Norte 16 Norte 0 -- -- 48
2017-09-19 01:00:00 24.5 6 Norte 15 Noroeste 0 -- -- 48
2017-09-19 00:00:00 24.8 13 Noroeste 19 Noroeste 0 -- -- 48
2017-09-18 23:00:00 24.6 7 Norte 19 Nordeste 0 -- -- 77
2017-09-18 22:00:00 24.2 10 Norte 24 Nordeste 0 -- -- 80
2017-09-18 21:00:00 25 10 Nordeste 25 Nordeste 0 -- -- 75
2017-09-18 20:00:00 28.3 9 Oeste 28 Sur 0 -- -- 36
2017-09-18 19:00:00 27 24 Sudeste 40 Sur 0 -- -- 59
2017-09-18 18:00:00 26.8 35 Sur 40 Sur 0 -- -- 52
2017-09-18 17:00:00 26.7 35 Sur 40 Sur 0 -- -- 58
2017-09-18 16:00:00 25.5 33 Sudeste 44 Sudeste 0 -- -- 69
2017-09-18 15:00:00 24.7 36 Sudeste 42 Sudeste 0 -- -- 72
2017-09-18 14:00:00 23.6 32 Sudeste 38 Sur 0 -- -- 79
2017-09-18 13:00:00 24 27 Sur 30 Sur 0 -- -- 81
2017-09-18 12:00:00 23.2 17 Sudeste 20 Sudeste 0 -- -- 71
2017-09-18 11:00:00 23.3 9 Sudeste 11 Sudeste 0 -- -- 66
2017-09-18 10:00:00 22 4 Noroeste 12 Sudoeste 0 -- -- 63
2017-09-18 09:00:00 20.1 6 Sur 21 Oeste 0 -- -- 72
2017-09-18 08:00:00 18.4 5 Noroeste 14 Oeste 0 -- -- 77
2017-09-18 07:00:00 18.7 5 Oeste 14 Oeste 0 -- -- 76
2017-09-18 06:00:00 19.1 10 Oeste 14 Oeste 0 -- -- 80
2017-09-18 05:00:00 19.2 7 Noroeste 15 Oeste 0 -- -- 79
2017-09-18 04:00:00 19.8 12 Oeste 17 Oeste 0 -- -- 73
2017-09-18 03:00:00 20.4 14 Oeste 22 Sudoeste 0 -- -- 71
2017-09-18 02:00:00 20.3 14 Sudoeste 18 Sudoeste 0 -- -- 74
2017-09-18 01:00:00 21 9 Oeste 18 Oeste 0 -- -- 76
2017-09-18 00:00:00 22.1 9 Oeste 16 Oeste 0 -- -- 78
2017-09-17 23:00:00 22.2 12 Oeste 17 Oeste 0 -- -- 79
2017-09-17 22:00:00 22.7 7 Noroeste 14 Sur 0 -- -- 75
2017-09-17 21:00:00 23.8 17 Sur 36 Sur 0 -- -- 66
2017-09-17 20:00:00 23.4 32 Sur 40 Sur 0 -- -- 77
2017-09-17 19:00:00 23.6 33 Sudeste 37 Sudeste 0 -- -- 78
2017-09-17 18:00:00 23.9 28 Sudeste 31 Sudeste 0 -- -- 72
2017-09-17 17:00:00 23.9 26 Sudeste 31 Sudeste 0 -- -- 77
2017-09-17 16:00:00 24 23 Sudeste 28 Sudeste 0 -- -- 77
2017-09-17 15:00:00 23.8 21 Este 24 Este 0 -- -- 77
2017-09-17 14:00:00 24.8 15 Este 20 Este 0 -- -- 73
2017-09-17 13:00:00 25 12 Nordeste 17 Nordeste 0 -- -- 68
2017-09-17 12:00:00 24.6 7 Nordeste 13 Noroeste 0 -- -- 66
2017-09-17 11:00:00 22.8 9 Noroeste 17 Noroeste 0 -- -- 72
2017-09-17 10:00:00 20.8 9 Noroeste 18 Noroeste 0 -- -- 71
2017-09-17 09:00:00 19.2 12 Noroeste 18 Noroeste 0 -- -- 75
2017-09-17 08:00:00 19.1 13 Noroeste 17 Oeste 0 -- -- 79
2017-09-17 07:00:00 19.3 12 Noroeste 15 Oeste 0 -- -- 86
2017-09-17 06:00:00 19.5 12 Noroeste 15 Noroeste 0 -- -- 86
2017-09-17 05:00:00 20.1 9 Noroeste 12 Oeste 0 -- -- 86
2017-09-17 04:00:00 20.9 8 Noroeste 15 Norte 0 -- -- 84
2017-09-17 03:00:00 21.2 9 Noroeste 14 Oeste 0 -- -- 84
2017-09-17 02:00:00 21.4 8 Noroeste 14 Oeste 0 -- -- 85
2017-09-17 01:00:00 21.6 11 Oeste 16 Sudoeste 0 -- -- 86
2017-09-17 00:00:00 22.1 7 Oeste 10 Sudoeste 0 -- -- 84
2017-09-16 23:00:00 23 5 Este 12 Este 0 -- -- 80
2017-09-16 22:00:00 23 9 Este 21 Este 0 -- -- 80
2017-09-16 21:00:00 23.1 18 Este 24 Este 0 -- -- 82
2017-09-16 20:00:00 22.9 23 Este 32 Este 0 -- -- 82
2017-09-16 19:00:00 22.9 26 Este 32 Este 0 -- -- 83
2017-09-16 18:00:00 22.8 26 Este 31 Este 0 -- -- 82
2017-09-16 17:00:00 22.9 27 Este 32 Este 0 -- -- 79
2017-09-16 16:00:00 23 26 Este 33 Este 0 -- -- 78
2017-09-16 15:00:00 22.9 27 Este 32 Este 0 -- -- 74
2017-09-16 14:00:00 23.1 27 Este 32 Este 0 -- -- 75
2017-09-16 13:00:00 23.4 22 Nordeste 28 Nordeste 0 -- -- 73
2017-09-16 12:00:00 22.6 15 Nordeste 24 Nordeste 0 -- -- 75
2017-09-16 11:00:00 22.8 13 Nordeste 23 Nordeste 0 -- -- 74
2017-09-16 10:00:00 22.1 17 Nordeste 26 Nordeste 0 -- -- 76
2017-09-16 09:00:00 21 8 Norte 15 Norte 0 -- -- 76
2017-09-16 08:00:00 21.1 12 Noroeste 23 Noroeste 0.2 -- -- 79
2017-09-16 07:00:00 20.5 3 Noroeste 27 Norte 1.6 -- -- 82
2017-09-16 06:00:00 21.8 13 Norte 36 Nordeste 0 -- -- 80
2017-09-16 05:00:00 22.1 30 Nordeste 39 Nordeste 0 -- -- 83
2017-09-16 04:00:00 22.3 28 Nordeste 45 Norte 0 -- -- 83
2017-09-16 03:00:00 22.6 31 Nordeste 52 Nordeste 0 -- -- 85
2017-09-16 02:00:00 22.8 39 Nordeste 50 Nordeste 0 -- -- 86
2017-09-16 01:00:00 23.1 39 Nordeste 50 Nordeste 0 -- -- 86
2017-09-16 00:00:00 23.8 32 Nordeste 44 Nordeste 0 -- -- 86
2017-09-15 23:00:00 23.8 32 Nordeste 46 Nordeste 0 -- -- 87
2017-09-15 22:00:00 24.4 18 Nordeste 28 Nordeste 0 -- -- 89
2017-09-15 21:00:00 24.2 13 Nordeste 22 Nordeste 0 -- -- 88
2017-09-15 20:00:00 24.5 17 Nordeste 24 Nordeste 0 -- -- 87
2017-09-15 19:00:00 25.4 18 Nordeste 25 Este 0 -- -- 82
2017-09-15 18:00:00 25.1 22 Este 26 Este 0 -- -- 83
2017-09-15 17:00:00 24.1 22 Sudeste 32 Sudeste 0 -- -- 87
2017-09-15 16:00:00 24.4 28 Sudeste 33 Sudeste 0 -- -- 89
2017-09-15 15:00:00 24.8 29 Sudeste 32 Sudeste 0 -- -- 85
2017-09-15 14:00:00 24.9 24 Sudeste 28 Sudeste 0 -- -- 84
2017-09-15 13:00:00 25.5 16 Este 19 Este 0 -- -- 81
2017-09-15 12:00:00 26.5 15 Nordeste 20 Nordeste 0 -- -- 76
2017-09-15 11:00:00 26.3 17 Nordeste 20 Nordeste 0 -- -- 76
2017-09-15 10:00:00 25.2 5 Norte 13 Noroeste 0 -- -- 77
2017-09-15 09:00:00 23.8 9 Oeste 13 Oeste 0 -- -- 84
2017-09-15 08:00:00 23.4 4 Oeste 18 Nordeste 0 -- -- 86
2017-09-15 07:00:00 24.1 11 Nordeste 16 Nordeste 0 -- -- 86
2017-09-15 06:00:00 24.3 12 Nordeste 21 Nordeste 0 -- -- 86
2017-09-15 05:00:00 23.6 5 Noroeste 8 Noroeste 0 -- -- 81
2017-09-15 04:00:00 24.3 3 Norte 10 Norte 0 -- -- 82
2017-09-15 03:00:00 24.1 5 Noroeste 7 Noroeste 0 -- -- 78
2017-09-15 02:00:00 24.7 3 Noroeste 6 Sur 0 -- -- 81
2017-09-15 01:00:00 24.6 5 Sur 14 Sur 0 -- -- 81
2017-09-15 00:00:00 25 16 Sur 21 Sur 0 -- -- 84
2017-09-14 23:00:00 25.2 3 Oeste 16 Oeste 0 -- -- 73
2017-09-14 22:00:00 25.1 6 Norte 18 Nordeste 0 -- -- 78
2017-09-14 21:00:00 25.9 8 Nordeste 17 Sudeste 0 -- -- 78
2017-09-14 20:00:00 26.9 4 Sudeste 23 Sudoeste 0 -- -- 66
2017-09-14 19:00:00 28.8 16 Sur 33 Sur 0 -- -- 56
2017-09-14 18:00:00 28.4 27 Sur 40 Sur 0 -- -- 56
2017-09-14 17:00:00 27.5 34 Sur 40 Sur 0 -- -- 64
2017-09-14 16:00:00 27.6 35 Sur 45 Sur 0 -- -- 61
2017-09-14 15:00:00 26.2 38 Sur 42 Sur 0 -- -- 75
2017-09-14 14:00:00 27.1 31 Sur 36 Sur 0 -- -- 69
2017-09-14 13:00:00 25.6 24 Sur 30 Sur 0 -- -- 76
2017-09-14 12:00:00 24.9 12 Este 14 Este 0 -- -- 69
2017-09-14 11:00:00 25.8 4 Este 8 Noroeste 0 -- -- 50
2017-09-14 10:00:00 22.8 4 Noroeste 13 Oeste 0 -- -- 57
2017-09-14 09:00:00 20.3 6 Noroeste 12 Oeste 0 -- -- 66
2017-09-14 08:00:00 20.4 7 Oeste 18 Oeste 0 -- -- 63
2017-09-14 07:00:00 20.3 13 Oeste 18 Oeste 0 -- -- 62
2017-09-14 06:00:00 20.4 6 Noroeste 14 Oeste 0 -- -- 65
2017-09-14 05:00:00 20.7 9 Oeste 17 Oeste 0 -- -- 65
2017-09-14 04:00:00 21 14 Oeste 18 Oeste 0 -- -- 68
2017-09-14 03:00:00 21.5 13 Oeste 18 Oeste 0 -- -- 70
2017-09-14 02:00:00 21.8 13 Oeste 17 Oeste 0 -- -- 71
2017-09-14 01:00:00 22.1 13 Oeste 17 Oeste 0 -- -- 77
2017-09-14 00:00:00 22 9 Noroeste 12 Oeste 0 -- -- 83
2017-09-13 23:00:00 23.7 6 Oeste 9 Nordeste 0 -- -- 85
2017-09-13 22:00:00 24.3 5 Nordeste 10 Nordeste 0 -- -- 85
2017-09-13 21:00:00 24.6 5 Nordeste 13 Norte 0 -- -- 83
2017-09-13 20:00:00 26.1 8 Nordeste 13 Nordeste 0 -- -- 76
2017-09-13 19:00:00 26.7 10 Nordeste 16 Este 0 -- -- 75
2017-09-13 18:00:00 26.9 14 Este 16 Nordeste 0 -- -- 73
2017-09-13 17:00:00 26.5 13 Este 17 Nordeste 0 -- -- 73
2017-09-13 16:00:00 26.7 14 Este 20 Este 0 -- -- 67
2017-09-13 15:00:00 27.2 19 Este 21 Este 0 -- -- 60
2017-09-13 14:00:00 27.5 13 Nordeste 15 Nordeste 0 -- -- 60
2017-09-13 13:00:00 27 11 Nordeste 14 Nordeste 0 -- -- 62
2017-09-13 12:00:00 27.6 7 Nordeste 12 Nordeste 0 -- -- 57
2017-09-13 11:00:00 25.5 6 Norte 13 Norte 0 -- -- 58
2017-09-13 10:00:00 23 9 Noroeste 13 Noroeste 0 -- -- 71
2017-09-13 09:00:00 20.6 11 Noroeste 15 Noroeste 0 -- -- 79
2017-09-13 08:00:00 20.3 13 Noroeste 22 Noroeste 0 -- -- 81
2017-09-13 07:00:00 20.5 15 Noroeste 21 Noroeste 0 -- -- 80
2017-09-13 06:00:00 20.6 10 Noroeste 14 Noroeste 0 -- -- 81
2017-09-13 05:00:00 21.1 11 Noroeste 15 Noroeste 0 -- -- 81
2017-09-13 04:00:00 21.8 12 Noroeste 16 Noroeste 0 -- -- 79
2017-09-13 03:00:00 21.9 10 Noroeste 14 Noroeste 0 -- -- 80
2017-09-13 02:00:00 22.3 8 Noroeste 13 Oeste 0 -- -- 80
2017-09-13 01:00:00 22.5 9 Oeste 13 Oeste 0 -- -- 81
2017-09-13 00:00:00 23.9 7 Norte 17 Nordeste 0 -- -- 74
2017-09-12 23:00:00 24.5 12 Nordeste 17 Nordeste 0 -- -- 78
2017-09-12 22:00:00 24.7 12 Nordeste 19 Norte 0 -- -- 74
2017-09-12 21:00:00 24.8 12 Norte 18 Norte 0 -- -- 79
2017-09-12 20:00:00 25.1 10 Nordeste 17 Nordeste 0 -- -- 79
2017-09-12 19:00:00 26.2 13 Nordeste 23 Nordeste 0 -- -- 76
2017-09-12 18:00:00 26 17 Nordeste 23 Este 0 -- -- 79
2017-09-12 17:00:00 26.2 20 Este 30 Este 0 -- -- 80
2017-09-12 16:00:00 25.6 26 Este 32 Este 0 -- -- 83
2017-09-12 15:00:00 25.5 27 Este 31 Este 0 -- -- 87
2017-09-12 14:00:00 26.1 24 Este 31 Este 0 -- -- 81
2017-09-12 13:00:00 26.1 16 Sudeste 18 Sudeste 0 -- -- 73
2017-09-12 12:00:00 25.5 16 Sur 21 Sur 0 -- -- 73
2017-09-12 11:00:00 29.4 3 Noroeste 11 Oeste 0 -- -- 35
2017-09-12 10:00:00 26.6 7 Oeste 15 Oeste 0 -- -- 40
2017-09-12 09:00:00 24.7 12 Oeste 18 Oeste 0 -- -- 44
2017-09-12 08:00:00 21.8 3 Oeste 12 Oeste 0 -- -- 53
2017-09-12 07:00:00 23.4 7 Oeste 11 Sudoeste 0 -- -- 45
2017-09-12 06:00:00 21.2 6 Oeste 13 Norte 0 -- -- 54
2017-09-12 05:00:00 21 3 Noroeste 9 Noroeste 0 -- -- 57
2017-09-12 04:00:00 22.5 5 Oeste 13 Sudoeste 0 -- -- 46
2017-09-12 03:00:00 22.1 5 Noroeste 11 Oeste 0 -- -- 55
2017-09-12 02:00:00 22.8 4 Noroeste 10 Noroeste 0 -- -- 50
2017-09-12 01:00:00 23.6 4 Oeste 9 Oeste 0 -- -- 55
2017-09-12 00:00:00 23.8 4 Noroeste 6 Noroeste 0 -- -- 64
2017-09-11 23:00:00 24.3 5 Noroeste 23 Norte 0 -- -- 68
2017-09-11 22:00:00 25.1 15 Norte 23 Norte 0 -- -- 77
2017-09-11 21:00:00 26.8 4 Noroeste 22 Sudeste 0 -- -- 50
2017-09-11 20:00:00 28.1 22 Sur 42 Sur 0 -- -- 46
2017-09-11 19:00:00 27.9 21 Sudeste 43 Sur 0 -- -- 52
2017-09-11 18:00:00 25.2 33 Sudeste 47 Sur 0 -- -- 74
2017-09-11 17:00:00 25.1 35 Sur 45 Sur 0 -- -- 69
2017-09-11 16:00:00 25.4 37 Sudeste 42 Sur 0 -- -- 66
2017-09-11 15:00:00 24.5 35 Sur 41 Sur 0 -- -- 75
2017-09-11 14:00:00 25.1 24 Sur 29 Sur 0 -- -- 74
2017-09-11 13:00:00 24.7 19 Sudeste 25 Sudeste 0 -- -- 73
2017-09-11 12:00:00 25.2 9 Sudeste 12 Sudeste 0 -- -- 53
2017-09-11 11:00:00 25.7 4 Noroeste 14 Noroeste 0 -- -- 34
2017-09-11 10:00:00 22.6 10 Oeste 16 Oeste 0 -- -- 42
2017-09-11 09:00:00 21.1 13 Oeste 20 Oeste 0 -- -- 47
2017-09-11 08:00:00 19.5 19 Oeste 26 Oeste 0 -- -- 54
2017-09-11 07:00:00 20.2 12 Oeste 20 Oeste 0 -- -- 57
2017-09-11 06:00:00 19.2 7 Oeste 21 Oeste 0 -- -- 64
2017-09-11 05:00:00 19.7 14 Oeste 17 Oeste 0 -- -- 62
2017-09-11 04:00:00 20.2 13 Sudoeste 24 Oeste 0 -- -- 61
2017-09-11 03:00:00 21 6 Oeste 13 Sudoeste 0 -- -- 62
2017-09-11 02:00:00 20.4 9 Sudoeste 13 Sudoeste 0 -- -- 63
2017-09-11 01:00:00 21 10 Noroeste 13 Oeste 0 -- -- 64
2017-09-11 00:00:00 22.1 9 Oeste 16 Oeste 0 -- -- 63
2017-09-10 23:00:00 22.7 12 Sudoeste 18 Sudoeste 0 -- -- 57
2017-09-10 22:00:00 23.7 5 Noroeste 28 Sur 0 -- -- 50
2017-09-10 21:00:00 23.9 24 Sur 42 Sur 0 -- -- 63
2017-09-10 20:00:00 23.9 39 Sur 53 Sur 0 -- -- 67
2017-09-10 19:00:00 23.9 44 Sur 55 Sur 0 -- -- 67
2017-09-10 18:00:00 23.7 49 Sur 57 Sur 0 -- -- 67
2017-09-10 17:00:00 23.9 47 Sur 56 Sur 0 -- -- 66
2017-09-10 16:00:00 24.1 45 Sur 54 Sur 0 -- -- 63
2017-09-10 15:00:00 24.4 36 Sudeste 41 Sudeste 0 -- -- 51
2017-09-10 14:00:00 25 22 Sudeste 32 Este 0 -- -- 41
2017-09-10 13:00:00 27 14 Noroeste 31 Oeste 0 -- -- 27
2017-09-10 12:00:00 26.2 18 Noroeste 39 Oeste 0 -- -- 28
2017-09-10 11:00:00 25.1 12 Norte 34 Noroeste 0 -- -- 30
2017-09-10 10:00:00 23.7 23 Norte 32 Noroeste 0 -- -- 35
2017-09-10 09:00:00 23 23 Noroeste 31 Noroeste 0 -- -- 35
2017-09-10 08:00:00 21.9 14 Norte 25 Noroeste 0 -- -- 38
2017-09-10 07:00:00 22.1 5 Norte 13 Noroeste 0 -- -- 40
2017-09-10 06:00:00 24.2 15 Noroeste 23 Noroeste 0 -- -- 37
2017-09-10 05:00:00 24.9 15 Norte 25 Norte 0 -- -- 39
2017-09-10 04:00:00 24.6 15 Norte 23 Norte 0 -- -- 67
2017-09-10 03:00:00 26.1 17 Noroeste 23 Noroeste 0 -- -- 43
2017-09-10 02:00:00 26 9 Noroeste 15 Noroeste 0 -- -- 46
2017-09-10 01:00:00 26.8 7 Noroeste 22 Oeste 0 -- -- 43
2017-09-10 00:00:00 27.8 13 Noroeste 27 Noroeste 0 -- -- 40
2017-09-09 23:00:00 28.5 22 Noroeste 46 Noroeste 0 -- -- 37
2017-09-09 22:00:00 29.3 37 Noroeste 59 Noroeste 0 -- -- 34
2017-09-09 21:00:00 30 25 Noroeste 37 Noroeste 0 -- -- 32
2017-09-09 20:00:00 28 17 Sudoeste 22 Sudoeste 0 -- -- 56
2017-09-09 19:00:00 28.6 16 Sudoeste 27 Sudoeste 0 -- -- 51
2017-09-09 18:00:00 27.4 8 Sur 24 Sudoeste 0 -- -- 58
2017-09-09 17:00:00 28.7 18 Sudoeste 29 Sudoeste 0 -- -- 50
2017-09-09 16:00:00 27.9 14 Sur 24 Sur 0 -- -- 67
2017-09-09 15:00:00 27.3 19 Sur 32 Sur 0 -- -- 70
2017-09-09 14:00:00 27.3 23 Sur 27 Sur 0 -- -- 71
2017-09-09 13:00:00 26.9 14 Sur 17 Sudeste 0 -- -- 75
2017-09-09 12:00:00 25.3 7 Sudeste 21 Sudeste 0 -- -- 79
2017-09-09 11:00:00 24.9 13 Sur 16 Sur 0 -- -- 76
2017-09-09 10:00:00 23.3 8 Noroeste 19 Oeste 0 -- -- 74
2017-09-09 09:00:00 22.1 13 Sudoeste 18 Sudoeste 0 -- -- 85
2017-09-09 08:00:00 21.4 7 Oeste 15 Oeste 0 -- -- 94
2017-09-09 07:00:00 21.3 12 Oeste 15 Oeste 0 -- -- 96
2017-09-09 06:00:00 22 10 Oeste 13 Oeste 0 -- -- 95
2017-09-09 05:00:00 22.2 8 Oeste 13 Oeste 0 -- -- 93
2017-09-09 04:00:00 22.5 8 Oeste 13 Sudoeste 0 -- -- 92
2017-09-09 03:00:00 23.3 10 Sudoeste 12 Sudoeste 0 -- -- 90
2017-09-09 02:00:00 23.6 10 Sudoeste 13 Sudoeste 0 -- -- 90
2017-09-09 01:00:00 23.7 7 Oeste 12 Oeste 0 -- -- 91
2017-09-09 00:00:00 24.6 6 Sudoeste 17 Sudeste 0 -- -- 88
2017-09-08 23:00:00 25 12 Sudeste 14 Sudeste 0 -- -- 88
2017-09-08 22:00:00 25 8 Sudeste 19 Sudeste 0 -- -- 88
2017-09-08 21:00:00 24.9 17 Sudeste 25 Sudeste 0 -- -- 88
2017-09-08 20:00:00 25.1 23 Sudeste 30 Sudeste 0 -- -- 87
2017-09-08 19:00:00 25.4 27 Sudeste 33 Sudeste 0 -- -- 86
2017-09-08 18:00:00 25.3 30 Sudeste 33 Sudeste 0 -- -- 85
2017-09-08 17:00:00 25.4 29 Sudeste 33 Sudeste 0 -- -- 84
2017-09-08 16:00:00 25.3 28 Sudeste 31 Sudeste 0 -- -- 85
2017-09-08 15:00:00 25.5 25 Sudeste 28 Sudeste 0 -- -- 84
2017-09-08 14:00:00 25.8 21 Sudeste 24 Sudeste 0 -- -- 83
2017-09-08 13:00:00 25.9 14 Este 17 Este 0 -- -- 83
2017-09-08 12:00:00 25.6 11 Este 14 Este 0 -- -- 83
2017-09-08 11:00:00 26.4 4 Nordeste 7 Este 0 -- -- 77
2017-09-08 10:00:00 24.1 5 Oeste 14 Oeste 0 -- -- 82
2017-09-08 09:00:00 22.5 11 Oeste 14 Oeste 0 -- -- 86
2017-09-08 08:00:00 22.2 6 Oeste 12 Oeste 0 -- -- 87
2017-09-08 07:00:00 22.5 8 Oeste 10 Oeste 0 -- -- 88
2017-09-08 06:00:00 22.4 5 Oeste 12 Oeste 0 -- -- 88
2017-09-08 05:00:00 22.4 7 Oeste 10 Oeste 0 -- -- 88
2017-09-08 04:00:00 23.3 5 Oeste 8 Oeste 0 -- -- 87
2017-09-08 03:00:00 23.7 4 Noroeste 9 Sudoeste 0 -- -- 85
2017-09-08 02:00:00 23.9 6 Sudoeste 9 Oeste 0 -- -- 86
2017-09-08 01:00:00 24 7 Oeste 10 Sudoeste 0 -- -- 85
2017-09-08 00:00:00 24.7 3 Oeste 6 Oeste 0 -- -- 83
2017-09-07 23:00:00 25.2 3 Este 9 Este 0 -- -- 81
2017-09-07 22:00:00 25.5 6 Este 12 Sudeste 0 -- -- 81
2017-09-07 21:00:00 25.4 10 Sudeste 17 Sudeste 0 -- -- 82
2017-09-07 20:00:00 25.5 16 Sudeste 21 Sudeste 0 -- -- 83
2017-09-07 19:00:00 25.8 15 Sudeste 22 Sudeste 0 -- -- 82
2017-09-07 18:00:00 26.2 18 Sudeste 25 Este 0 -- -- 80
2017-09-07 17:00:00 26.2 19 Este 23 Este 0 -- -- 84
2017-09-07 16:00:00 26.2 21 Este 23 Este 0 -- -- 81
2017-09-07 15:00:00 26.5 17 Este 21 Este 0 -- -- 77
2017-09-07 14:00:00 27.2 9 Este 12 Este 0 -- -- 71
2017-09-07 13:00:00 28.4 0 Calma 8 Nordeste 0 -- -- 67
2017-09-07 12:00:00 26.8 4 Nordeste 13 Nordeste 0 -- -- 73
2017-09-07 11:00:00 25.9 5 Norte 11 Noroeste 0 -- -- 74
2017-09-07 10:00:00 24.2 9 Noroeste 14 Oeste 0 -- -- 80
2017-09-07 09:00:00 22 13 Noroeste 17 Oeste 0 -- -- 83
2017-09-07 08:00:00 21.5 12 Oeste 15 Oeste 0 -- -- 84
2017-09-07 07:00:00 21.7 12 Oeste 15 Oeste 0 -- -- 83
2017-09-07 06:00:00 21.9 12 Oeste 16 Oeste 0 -- -- 83
2017-09-07 05:00:00 22 13 Oeste 17 Oeste 0 -- -- 83
2017-09-07 04:00:00 22.4 12 Oeste 15 Noroeste 0 -- -- 83
2017-09-07 03:00:00 22.5 9 Oeste 14 Oeste 0 -- -- 89
2017-09-07 02:00:00 23 8 Oeste 13 Oeste 0 -- -- 87
2017-09-07 01:00:00 23.9 10 Oeste 12 Oeste 0 -- -- 88
2017-09-07 00:00:00 24.3 8 Noroeste 10 Oeste 0 -- -- 88
2017-09-06 23:00:00 24.5 8 Noroeste 10 Oeste 0 -- -- 88
2017-09-06 22:00:00 25.1 6 Norte 11 Norte 0 -- -- 87
2017-09-06 21:00:00 25.2 5 Nordeste 14 Nordeste 0 -- -- 86
2017-09-06 20:00:00 26.8 7 Nordeste 12 Nordeste 0 -- -- 81
2017-09-06 19:00:00 26 8 Este 15 Este 0 -- -- 84
2017-09-06 18:00:00 25.8 12 Este 16 Este 0 -- -- 85
2017-09-06 17:00:00 26.1 14 Este 20 Sudeste 0 -- -- 84
2017-09-06 16:00:00 26.2 18 Este 22 Este 0 -- -- 85
2017-09-06 15:00:00 26.2 19 Sudeste 24 Sudeste 0 -- -- 85
2017-09-06 14:00:00 26 18 Sudeste 21 Sudeste 0 -- -- 83
2017-09-06 13:00:00 26 15 Este 19 Este 0 -- -- 81
2017-09-06 12:00:00 26.6 15 Este 18 Este 0 -- -- 80
2017-09-06 11:00:00 26.2 7 Norte 12 Norte 0 -- -- 69
2017-09-06 10:00:00 24.3 8 Noroeste 18 Oeste 0 -- -- 66
2017-09-06 09:00:00 22.9 14 Oeste 17 Oeste 0 -- -- 66
2017-09-06 08:00:00 21.5 12 Noroeste 20 Oeste 0 -- -- 77
2017-09-06 07:00:00 21.9 15 Noroeste 22 Oeste 0 -- -- 74
2017-09-06 06:00:00 22 15 Oeste 20 Oeste 0 -- -- 77
2017-09-06 05:00:00 22 9 Noroeste 17 Oeste 0 -- -- 83
2017-09-06 04:00:00 22.6 11 Oeste 14 Oeste 0 -- -- 82
2017-09-06 03:00:00 23 9 Oeste 16 Oeste 0 -- -- 84
2017-09-06 02:00:00 23 10 Oeste 13 Oeste 0 -- -- 88
2017-09-06 01:00:00 23.6 8 Oeste 11 Oeste 0 -- -- 88
2017-09-06 00:00:00 24.5 6 Oeste 8 Oeste 0 -- -- 88
2017-09-05 23:00:00 24.9 0 Calma 5 Nordeste 0 -- -- 87
2017-09-05 22:00:00 25.2 3 Este 7 Nordeste 0 -- -- 86
2017-09-05 21:00:00 25.3 5 Este 9 Este 0 -- -- 85
2017-09-05 20:00:00 26.2 8 Sudeste 13 Sudeste 0 -- -- 82
2017-09-05 19:00:00 26.7 11 Este 17 Este 0 -- -- 77
2017-09-05 18:00:00 27.1 14 Este 17 Este 0 -- -- 76
2017-09-05 17:00:00 26.9 14 Este 20 Este 0 -- -- 79
2017-09-05 16:00:00 27.3 15 Este 18 Este 0 -- -- 73
2017-09-05 15:00:00 27.4 10 Este 13 Este 0 -- -- 75
2017-09-05 14:00:00 28.1 10 Este 14 Este 0 -- -- 72
2017-09-05 13:00:00 28.5 10 Nordeste 17 Nordeste 0 -- -- 72
2017-09-05 12:00:00 27.8 12 Nordeste 15 Nordeste 0 -- -- 73
2017-09-05 11:00:00 26.8 9 Norte 15 Noroeste 0 -- -- 72
2017-09-05 10:00:00 25.7 9 Norte 18 Noroeste 0 -- -- 73
2017-09-05 09:00:00 23.5 10 Noroeste 14 Noroeste 0 -- -- 86
2017-09-05 08:00:00 22.8 8 Noroeste 15 Noroeste 0 -- -- 87
2017-09-05 07:00:00 23.2 7 Noroeste 19 Norte 0 -- -- 87
2017-09-05 06:00:00 23.7 9 Norte 15 Noroeste 0 -- -- 86
2017-09-05 05:00:00 23.8 7 Noroeste 13 Norte 0 -- -- 87
2017-09-05 04:00:00 24.4 10 Norte 14 Norte 0 -- -- 84
2017-09-05 03:00:00 24.9 12 Norte 22 Nordeste 0 -- -- 88
2017-09-05 02:00:00 25.2 18 Nordeste 26 Nordeste 0 -- -- 89
2017-09-05 01:00:00 25.4 23 Nordeste 29 Nordeste 0 -- -- 89
2017-09-05 00:00:00 25.4 23 Nordeste 29 Nordeste 0 -- -- 91
2017-09-04 23:00:00 25.4 17 Nordeste 24 Nordeste 0 -- -- 92
2017-09-04 22:00:00 25.3 6 Norte 10 Norte 0 -- -- 92
2017-09-04 21:00:00 25.5 0 Calma 8 Este 0 -- -- 90
2017-09-04 20:00:00 26.4 6 Este 20 Nordeste 0 -- -- 86
2017-09-04 19:00:00 27 15 Nordeste 26 Sudeste 0 -- -- 87
2017-09-04 18:00:00 26.2 24 Sudeste 32 Sudeste 0 -- -- 89
2017-09-04 17:00:00 26.1 31 Sudeste 40 Sur 0 -- -- 88
2017-09-04 16:00:00 26 36 Sur 47 Sudeste 0 -- -- 88
2017-09-04 15:00:00 26.3 33 Sur 43 Sur 0 -- -- 88
2017-09-04 14:00:00 26.3 38 Sur 43 Sur 0 -- -- 86
2017-09-04 13:00:00 26.3 24 Sudeste 28 Sudeste 0 -- -- 86
2017-09-04 12:00:00 26.4 10 Este 13 Este 0 -- -- 81
2017-09-04 11:00:00 27.5 7 Nordeste 12 Nordeste 0 -- -- 71
2017-09-04 10:00:00 25.1 3 Norte 13 Oeste 0 -- -- 78
2017-09-04 09:00:00 23.1 13 Oeste 17 Oeste 0 -- -- 82
2017-09-04 08:00:00 21.6 5 Noroeste 13 Oeste 0 -- -- 90
2017-09-04 07:00:00 22.4 5 Noroeste 13 Oeste 0 -- -- 87
2017-09-04 06:00:00 22.5 9 Oeste 12 Oeste 0 -- -- 89
2017-09-04 05:00:00 22.3 10 Noroeste 12 Noroeste 0 -- -- 91
2017-09-04 04:00:00 22.3 7 Oeste 11 Oeste 0 -- -- 91
2017-09-04 03:00:00 22.9 8 Oeste 11 Sudoeste 0 -- -- 89
2017-09-04 02:00:00 24.1 9 Sudoeste 11 Sudoeste 0 -- -- 84
2017-09-04 01:00:00 24.2 6 Sudoeste 9 Oeste 0 -- -- 84
2017-09-04 00:00:00 24.1 8 Oeste 12 Oeste 0 -- -- 85
2017-09-03 23:00:00 24.9 9 Norte 12 Norte 0 -- -- 85
2017-09-03 22:00:00 25.1 9 Sur 19 Este 0 -- -- 83
2017-09-03 21:00:00 25.4 18 Sudeste 28 Sudeste 0 -- -- 84
2017-09-03 20:00:00 25.3 24 Sudeste 33 Sudeste 0 -- -- 81
2017-09-03 19:00:00 25.4 28 Sudeste 35 Sudeste 0 -- -- 81
2017-09-03 18:00:00 25.4 31 Sudeste 37 Sudeste 0 -- -- 79
2017-09-03 17:00:00 25.2 31 Sudeste 35 Sudeste 0 -- -- 81
2017-09-03 16:00:00 25.1 27 Sudeste 31 Sudeste 0 -- -- 81
2017-09-03 15:00:00 25.2 23 Sudeste 26 Sudeste 0 -- -- 81
2017-09-03 14:00:00 25.2 19 Sudeste 22 Sudeste 0 -- -- 82
2017-09-03 13:00:00 25.5 15 Este 19 Este 0 -- -- 81
2017-09-03 12:00:00 26.6 8 Este 12 Nordeste 0 -- -- 75
2017-09-03 11:00:00 26.7 3 Este 12 Noroeste 0 -- -- 74
2017-09-03 10:00:00 24.1 7 Oeste 14 Oeste 0 -- -- 83
2017-09-03 09:00:00 22.5 10 Oeste 15 Oeste 0 -- -- 85
2017-09-03 08:00:00 21.6 9 Oeste 13 Oeste 0 -- -- 88
2017-09-03 07:00:00 21.8 9 Oeste 14 Oeste 0 -- -- 89
2017-09-03 06:00:00 21.6 14 Oeste 18 Oeste 0 -- -- 90
2017-09-03 05:00:00 22.1 9 Oeste 12 Oeste 0 -- -- 89
2017-09-03 04:00:00 22.5 6 Oeste 9 Oeste 0 -- -- 88
2017-09-03 03:00:00 23.3 6 Oeste 13 Oeste 0 -- -- 86
2017-09-03 02:00:00 23.6 10 Oeste 14 Oeste 0 -- -- 85
2017-09-03 01:00:00 23.6 9 Oeste 12 Noroeste 0 -- -- 87
2017-09-03 00:00:00 24.4 4 Noroeste 6 Norte 0 -- -- 82
2017-09-02 23:00:00 24.7 3 Nordeste 8 Este 0 -- -- 81
2017-09-02 22:00:00 24.7 5 Este 13 Este 0 -- -- 81
2017-09-02 21:00:00 24.8 9 Este 15 Este 0 -- -- 81
2017-09-02 20:00:00 25.1 12 Este 19 Este 0 -- -- 80
2017-09-02 19:00:00 25.4 18 Este 26 Este 0 -- -- 78
2017-09-02 18:00:00 25.5 23 Este 30 Este 0 -- -- 78
2017-09-02 17:00:00 25.7 26 Este 32 Este 0 -- -- 77
2017-09-02 16:00:00 25.9 26 Este 35 Este 0 -- -- 77
2017-09-02 15:00:00 26.3 28 Este 32 Nordeste 0 -- -- 77
2017-09-02 14:00:00 26.2 25 Nordeste 32 Nordeste 0 -- -- 74
2017-09-02 13:00:00 25.9 22 Nordeste 39 Nordeste 0 -- -- 77
2017-09-02 12:00:00 25.3 29 Nordeste 38 Nordeste 0 -- -- 82
2017-09-02 11:00:00 25.4 17 Nordeste 23 Nordeste 0 -- -- 82
2017-09-02 10:00:00 24.6 6 Noroeste 13 Noroeste 0 -- -- 83
2017-09-02 09:00:00 24.3 8 Noroeste 12 Noroeste 0 -- -- 84
2017-09-02 08:00:00 24.2 6 Noroeste 10 Norte 0 -- -- 82
2017-09-02 07:00:00 24 6 Noroeste 15 Noroeste 0 -- -- 85
2017-09-02 06:00:00 24 9 Noroeste 12 Noroeste 0 -- -- 84
2017-09-02 05:00:00 23.9 8 Noroeste 22 Nordeste 0 -- -- 84
2017-09-02 04:00:00 24.9 12 Nordeste 19 Norte 0 -- -- 85
2017-09-02 03:00:00 24.4 6 Noroeste 21 Nordeste 0 -- -- 85
2017-09-02 02:00:00 25.1 13 Norte 22 Nordeste 0 -- -- 84
2017-09-02 01:00:00 25.2 18 Nordeste 27 Nordeste 0 -- -- 85
2017-09-02 00:00:00 25.4 21 Nordeste 28 Nordeste 0 -- -- 85
2017-09-01 23:00:00 25.4 23 Nordeste 26 Este 0 -- -- 86
2017-09-01 22:00:00 25.5 18 Nordeste 25 Nordeste 0 -- -- 86
2017-09-01 21:00:00 25.5 21 Nordeste 30 Este 0 -- -- 86
2017-09-01 20:00:00 26.1 27 Este 33 Este 0 -- -- 84
2017-09-01 19:00:00 26.3 26 Nordeste 34 Nordeste 0 -- -- 83
2017-09-01 18:00:00 26.9 28 Este 41 Este 0 -- -- 80
2017-09-01 17:00:00 27.2 30 Este 35 Nordeste 0 -- -- 79
2017-09-01 16:00:00 27.4 24 Nordeste 31 Nordeste 0 -- -- 79
2017-09-01 15:00:00 27.4 23 Nordeste 29 Nordeste 0 -- -- 78
2017-09-01 14:00:00 27.5 19 Nordeste 23 Nordeste 0 -- -- 73
2017-09-01 13:00:00 27.5 17 Nordeste 24 Nordeste 0 -- -- 72
2017-09-01 12:00:00 27.4 21 Nordeste 27 Nordeste 0 -- -- 70
2017-09-01 11:00:00 26.7 9 Norte 19 Norte 0 -- -- 66
2017-09-01 10:00:00 24.8 12 Noroeste 16 Noroeste 0 -- -- 71
2017-09-01 09:00:00 23.2 9 Noroeste 16 Noroeste 0 -- -- 79
2017-09-01 08:00:00 22.4 9 Noroeste 18 Noroeste 0 -- -- 83
2017-09-01 07:00:00 22.2 12 Noroeste 17 Noroeste 0 -- -- 83
2017-09-01 06:00:00 21.9 12 Noroeste 16 Noroeste 0 -- -- 86
2017-09-01 05:00:00 22.2 13 Noroeste 17 Oeste 0 -- -- 87
2017-09-01 04:00:00 22.5 12 Noroeste 15 Noroeste 0 -- -- 88
2017-09-01 03:00:00 22.7 11 Noroeste 15 Noroeste 0 -- -- 88
2017-09-01 02:00:00 23.2 10 Noroeste 19 Noroeste 0 -- -- 88
2017-09-01 01:00:00 23.2 9 Noroeste 15 Oeste 0 -- -- 91
2017-09-01 00:00:00 23.7 11 Oeste 21 Nordeste 0 -- -- 90
2017-08-31 23:00:00 25.6 17 Nordeste 24 Nordeste 0 -- -- 83
2017-08-31 22:00:00 25.6 19 Nordeste 26 Nordeste 0 -- -- 82
2017-08-31 21:00:00 25.9 16 Nordeste 21 Nordeste 0 -- -- 82
2017-08-31 20:00:00 26.8 16 Nordeste 20 Nordeste 0 -- -- 75
2017-08-31 19:00:00 28 8 Nordeste 14 Nordeste 0 -- -- 71
2017-08-31 18:00:00 27.3 10 Este 17 Este 0 -- -- 76
2017-08-31 17:00:00 26.6 13 Sudeste 17 Sudeste 0 -- -- 76
2017-08-31 16:00:00 26.9 13 Este 15 Este 0 -- -- 76
2017-08-31 15:00:00 26.6 10 Este 16 Nordeste 0 -- -- 74
2017-08-31 14:00:00 27.5 11 Nordeste 15 Este 0 -- -- 72
2017-08-31 13:00:00 25.9 13 Este 15 Este 0 -- -- 74
2017-08-31 12:00:00 27.1 10 Nordeste 15 Nordeste 0 -- -- 68
2017-08-31 11:00:00 24.8 7 Norte 12 Noroeste 0 -- -- 70
2017-08-31 10:00:00 23.4 9 Noroeste 17 Noroeste 0 -- -- 80
2017-08-31 09:00:00 22.1 10 Noroeste 21 Noroeste 0 -- -- 82
2017-08-31 08:00:00 21.3 16 Noroeste 20 Noroeste 0 -- -- 87
2017-08-31 07:00:00 21.2 16 Oeste 20 Oeste 0 -- -- 87
2017-08-31 06:00:00 21 9 Oeste 22 Oeste 0 -- -- 90
2017-08-31 05:00:00 20.7 12 Oeste 18 Oeste 0 -- -- 94
2017-08-31 04:00:00 20.9 8 Oeste 13 Noroeste 0 -- -- 94
2017-08-31 03:00:00 21.4 10 Sudoeste 14 Oeste 0 -- -- 93
2017-08-31 02:00:00 21.6 8 Noroeste 12 Noroeste 0 -- -- 93
2017-08-31 01:00:00 22.3 4 Noroeste 9 Sur 0 -- -- 91
2017-08-31 00:00:00 22.2 7 Oeste 12 Noroeste 0 -- -- 90
2017-08-30 23:00:00 23.3 3 Nordeste 21 Este 0 -- -- 84
2017-08-30 22:00:00 23.9 18 Este 21 Este 0 -- -- 85
2017-08-30 21:00:00 23 9 Norte 14 Oeste 0 -- -- 85
2017-08-30 20:00:00 24.3 13 Oeste 17 Oeste 0 -- -- 79
2017-08-30 19:00:00 23.3 4 Sudeste 27 Sur 0 -- -- 85
2017-08-30 18:00:00 22.2 20 Sur 25 Sur 0 -- -- 85
2017-08-30 17:00:00 21.4 6 Sudoeste 10 Oeste 0 -- -- 89
2017-08-30 16:00:00 19.8 5 Oeste 19 Noroeste 0.4 -- -- 96
2017-08-30 15:00:00 19.2 9 Oeste 16 Oeste 3.2 -- -- 97
2017-08-30 14:00:00 19.4 10 Noroeste 17 Noroeste 3.8 -- -- 98
2017-08-30 13:00:00 19.5 10 Noroeste 12 Noroeste 5 -- -- 97
2017-08-30 12:00:00 19.3 4 Norte 24 Oeste 4.2 -- -- 97
2017-08-30 11:00:00 19.4 15 Noroeste 21 Noroeste 1.6 -- -- 97
2017-08-30 10:00:00 19.5 10 Noroeste 17 Noroeste 3 -- -- 95
2017-08-30 09:00:00 19.3 7 Noroeste 15 Noroeste 0.8 -- -- 95
2017-08-30 08:00:00 19.3 6 Noroeste 17 Oeste 1.6 -- -- 95
2017-08-30 07:00:00 19.5 11 Noroeste 18 Oeste 0.4 -- -- 94
2017-08-30 06:00:00 19.7 5 Noroeste 11 Sur 1.2 -- -- 93
2017-08-30 05:00:00 19.7 6 Oeste 17 Oeste 1.8 -- -- 92
2017-08-30 04:00:00 19.7 13 Oeste 19 Oeste 1.6 -- -- 87
2017-08-30 03:00:00 19.8 15 Oeste 22 Oeste 0.2 -- -- 91
2017-08-30 02:00:00 19.9 10 Oeste 17 Oeste 0.2 -- -- 91
2017-08-30 01:00:00 19.6 3 Noroeste 17 Oeste 1.4 -- -- 93
2017-08-30 00:00:00 20.3 10 Sudoeste 27 Sur 0.4 -- -- 91
2017-08-29 23:00:00 21.1 22 Sudeste 27 Sudeste 2.2 -- -- 92
2017-08-29 22:00:00 20.9 12 Sudoeste 21 Sudoeste 7.8 -- -- 93
2017-08-29 21:00:00 22.5 8 Norte 22 Sudoeste 7.4 -- -- 89
2017-08-29 20:00:00 24 10 Sudeste 19 Este 0.6 -- -- 77
2017-08-29 19:00:00 24.2 14 Sudeste 20 Sudeste 0.4 -- -- 78
2017-08-29 18:00:00 25 14 Este 20 Este 0 -- -- 78
2017-08-29 17:00:00 25.1 11 Este 14 Este 0 -- -- 73
2017-08-29 16:00:00 25.6 6 Nordeste 12 Este 0 -- -- 71
2017-08-29 15:00:00 24.2 5 Oeste 14 Nordeste 0 -- -- 74
2017-08-29 14:00:00 23.4 8 Noroeste 14 Noroeste 0 -- -- 81
2017-08-29 13:00:00 23.2 6 Noroeste 19 Oeste 0.8 -- -- 89
2017-08-29 12:00:00 23.7 8 Noroeste 24 Sur 0.4 -- -- 87
2017-08-29 11:00:00 23.7 14 Sudeste 21 Sudeste 0 -- -- 86
2017-08-29 10:00:00 22.1 4 Norte 20 Sudoeste 2.4 -- -- 89
2017-08-29 09:00:00 22.6 9 Noroeste 17 Noroeste 0 -- -- 84
2017-08-29 08:00:00 22.6 8 Noroeste 15 Oeste 0 -- -- 80
2017-08-29 07:00:00 23.1 12 Oeste 16 Noroeste 0 -- -- 77
2017-08-29 06:00:00 22.7 13 Oeste 20 Noroeste 0 -- -- 81
2017-08-29 05:00:00 23.6 11 Oeste 19 Oeste 0 -- -- 74
2017-08-29 04:00:00 23.8 9 Oeste 22 Oeste 0 -- -- 75
2017-08-29 03:00:00 25.2 5 Sur 15 Sudoeste 0 -- -- 74
2017-08-29 02:00:00 24.7 12 Sudoeste 17 Sudoeste 0 -- -- 72
2017-08-29 01:00:00 24.8 8 Oeste 14 Noroeste 0 -- -- 78
2017-08-29 00:00:00 24.8 11 Noroeste 13 Noroeste 0 -- -- 76
2017-08-28 23:00:00 25 11 Noroeste 14 Oeste 0 -- -- 79
2017-08-28 22:00:00 26.1 9 Sudoeste 31 Sur 0 -- -- 78
2017-08-28 21:00:00 26.3 28 Sur 33 Sudeste 0 -- -- 79
2017-08-28 20:00:00 26.5 24 Sudeste 30 Sudeste 0 -- -- 77
2017-08-28 19:00:00 26.5 23 Sudeste 36 Sudeste 0 -- -- 77
2017-08-28 18:00:00 26.2 31 Sudeste 51 Sudeste 0 -- -- 80
2017-08-28 17:00:00 26.4 27 Sudeste 35 Sudeste 0 -- -- 84
2017-08-28 16:00:00 26.1 21 Sudeste 38 Sur 0 -- -- 81
2017-08-28 15:00:00 26.5 35 Sudeste 42 Sudeste 0 -- -- 81
2017-08-28 14:00:00 28.1 9 Sudoeste 31 Sudoeste 0 -- -- 51
2017-08-28 13:00:00 26.8 18 Sur 38 Sur 0 -- -- 74
2017-08-28 12:00:00 26.7 27 Sur 35 Sur 0 -- -- 75
2017-08-28 11:00:00 27.1 15 Sudeste 24 Sudoeste 0 -- -- 74
2017-08-28 10:00:00 25.8 19 Sudoeste 27 Sudoeste 0 -- -- 80
2017-08-28 09:00:00 25.9 4 Noroeste 10 Noroeste 0 -- -- 78
2017-08-28 08:00:00 25.4 5 Oeste 14 Noroeste 0 -- -- 80
2017-08-28 07:00:00 25.4 8 Noroeste 12 Norte 0 -- -- 81
2017-08-28 06:00:00 25.4 10 Noroeste 15 Noroeste 0 -- -- 83
2017-08-28 05:00:00 25.6 12 Oeste 20 Oeste 0 -- -- 80
2017-08-28 04:00:00 25.4 14 Noroeste 20 Noroeste 0 -- -- 86
2017-08-28 03:00:00 25.6 10 Oeste 13 Oeste 0 -- -- 88
2017-08-28 02:00:00 26.2 8 Noroeste 10 Noroeste 0 -- -- 87
2017-08-28 01:00:00 26.4 5 Nordeste 12 Nordeste 0 -- -- 88
2017-08-28 00:00:00 26.6 9 Nordeste 13 Nordeste 0 -- -- 88
2017-08-27 23:00:00 26.5 8 Este 13 Este 0 -- -- 88
2017-08-27 22:00:00 26.7 10 Este 19 Este 0 -- -- 88
2017-08-27 21:00:00 26.8 13 Nordeste 19 Nordeste 0 -- -- 88
2017-08-27 20:00:00 27.2 13 Nordeste 18 Nordeste 0 -- -- 87
2017-08-27 19:00:00 27.3 12 Sudeste 17 Sudeste 0 -- -- 84
2017-08-27 18:00:00 28 10 Sudeste 13 Sudeste 0 -- -- 82
2017-08-27 17:00:00 28 10 Este 13 Este 0 -- -- 81
2017-08-27 16:00:00 28 7 Este 13 Este 0 -- -- 81
2017-08-27 15:00:00 28.7 9 Este 14 Nordeste 0 -- -- 77
2017-08-27 14:00:00 27.9 10 Este 17 Este 0 -- -- 80
2017-08-27 13:00:00 28.9 10 Nordeste 14 Nordeste 0 -- -- 76
2017-08-27 12:00:00 28.4 8 Nordeste 14 Nordeste 0 -- -- 80
2017-08-27 11:00:00 27.2 9 Norte 14 Nordeste 0 -- -- 82
2017-08-27 10:00:00 27.3 8 Nordeste 14 Nordeste 0 -- -- 82
2017-08-27 09:00:00 26.9 5 Sudeste 24 Este 0 -- -- 81
2017-08-27 08:00:00 26.6 14 Nordeste 26 Nordeste 0 -- -- 80
2017-08-27 07:00:00 24.9 12 Noroeste 21 Noroeste 0 -- -- 83
2017-08-27 06:00:00 25.2 14 Noroeste 21 Oeste 0 -- -- 85
2017-08-27 05:00:00 25.2 15 Oeste 25 Oeste 0 -- -- 90
2017-08-27 04:00:00 26.1 6 Noroeste 12 Nordeste 0 -- -- 89
2017-08-27 03:00:00 26.3 7 Este 15 Sudeste 0 -- -- 90
2017-08-27 02:00:00 26.5 13 Sudeste 15 Sudeste 0 -- -- 89
2017-08-27 01:00:00 26.7 12 Este 20 Este 0 -- -- 89
2017-08-27 00:00:00 26.9 10 Este 13 Este 0 -- -- 87
2017-08-26 23:00:00 26.5 2 Noroeste 10 Oeste 0 -- -- 86
2017-08-26 22:00:00 26.3 5 Noroeste 8 Oeste 0 -- -- 89
2017-08-26 21:00:00 26.7 3 Nordeste 12 Este 0 -- -- 87
2017-08-26 20:00:00 27.8 8 Nordeste 14 Nordeste 0 -- -- 83
2017-08-26 19:00:00 28.5 8 Nordeste 16 Nordeste 0 -- -- 81
2017-08-26 18:00:00 28.5 9 Nordeste 18 Nordeste 0 -- -- 81
2017-08-26 17:00:00 27.3 13 Este 21 Este 0 -- -- 85
2017-08-26 16:00:00 28.1 7 Este 17 Este 0 -- -- 80
2017-08-26 15:00:00 27.1 15 Este 20 Este 0 -- -- 82
2017-08-26 14:00:00 27.2 16 Este 21 Este 0 -- -- 83
2017-08-26 13:00:00 26.8 17 Este 25 Este 0 -- -- 83
2017-08-26 12:00:00 26.9 20 Este 23 Este 0 -- -- 82
2017-08-26 11:00:00 28.2 10 Nordeste 14 Nordeste 0 -- -- 76
2017-08-26 10:00:00 27.1 5 Norte 11 Noroeste 0 -- -- 77
2017-08-26 09:00:00 25 7 Noroeste 12 Noroeste 0 -- -- 83
2017-08-26 08:00:00 23.9 12 Noroeste 15 Noroeste 0 -- -- 88
2017-08-26 07:00:00 23.9 8 Oeste 13 Oeste 0 -- -- 91
2017-08-26 06:00:00 24.3 9 Oeste 12 Oeste 0 -- -- 90
2017-08-26 05:00:00 24.7 7 Noroeste 14 Oeste 0 -- -- 89
2017-08-26 04:00:00 25 6 Noroeste 11 Nordeste 0 -- -- 88
2017-08-26 03:00:00 25 4 Oeste 12 Nordeste 0 -- -- 88
2017-08-26 02:00:00 25.9 6 Nordeste 13 Nordeste 0 -- -- 89
2017-08-26 01:00:00 25.7 3 Norte 12 Este 0 -- -- 88
2017-08-26 00:00:00 25.8 4 Nordeste 11 Nordeste 0 -- -- 87